Time;durP1;ratioP1;P1;durP2;ratioP2;P2;SDS_P1;SDS_P2;PMS_P1;PMS_P2;Temp;Humidity;BMP_temperature;BMP_pressure;BME280_temperature;BME280_humidity;BME280_pressure;Samples;Min_cycle;Max_cycle;Signal;HPM_P1;HPM_P2
2021/03/03 00:00:34;;;;;;;29.40;19.83;;;5.20;92.50;;;;;;5097151;28;20173;-42
2021/03/03 00:03:00;;;;;;;28.30;20.07;;;5.10;92.30;;;;;;5097390;28;20642;-42
2021/03/03 00:05:25;;;;;;;26.73;18.27;;;5.00;92.50;;;;;;5097353;28;20203;-41
2021/03/03 00:07:51;;;;;;;28.07;19.33;;;5.00;92.60;;;;;;5098503;28;20176;-40
2021/03/03 00:10:16;;;;;;;27.33;19.00;;;4.90;92.70;;;;;;5098888;28;20180;-42
2021/03/03 00:12:42;;;;;;;24.67;18.93;;;4.80;92.90;;;;;;5101504;28;20224;-40
2021/03/03 00:15:08;;;;;;;27.43;19.77;;;4.80;93.10;;;;;;5101107;28;20311;-42
2021/03/03 00:17:34;;;;;;;25.27;18.80;;;4.80;93.20;;;;;;5101222;28;20195;-39
2021/03/03 00:20:00;;;;;;;27.27;18.43;;;4.80;93.10;;;;;;5100505;28;20828;-41
2021/03/03 00:22:25;;;;;;;24.83;17.97;;;4.70;93.10;;;;;;5101202;28;20180;-41
2021/03/03 00:24:51;;;;;;;27.80;19.30;;;4.70;93.10;;;;;;5101537;28;20185;-39
2021/03/03 00:27:17;;;;;;;29.03;19.03;;;4.70;93.10;;;;;;5101097;28;20215;-41
2021/03/03 00:29:42;;;;;;;23.63;18.43;;;4.70;93.20;;;;;;5081279;28;20235;-42
2021/03/03 00:32:08;;;;;;;28.77;20.13;;;4.70;93.20;;;;;;5081430;28;20185;-40
2021/03/03 00:34:33;;;;;;;28.70;19.57;;;4.70;93.20;;;;;;5080688;28;20307;-42
2021/03/03 00:36:59;;;;;;;30.47;21.20;;;4.80;93.20;;;;;;5089364;28;20208;-38
2021/03/03 00:39:27;;;;;;;30.17;20.60;;;4.70;93.10;;;;;;5101018;28;20271;-40
2021/03/03 00:41:53;;;;;;;28.87;19.33;;;4.70;93.30;;;;;;5100877;28;20188;-41
2021/03/03 00:44:18;;;;;;;27.07;20.20;;;4.70;93.50;;;;;;5100660;28;20441;-42
2021/03/03 00:46:44;;;;;;;27.10;19.00;;;4.70;93.60;;;;;;5100420;28;20422;-40
2021/03/03 00:49:10;;;;;;;32.50;18.27;;;4.70;93.60;;;;;;5100802;28;20203;-40
2021/03/03 00:51:35;;;;;;;28.33;19.17;;;4.70;93.60;;;;;;5100681;28;20612;-42
2021/03/03 00:54:01;;;;;;;25.10;20.20;;;4.70;93.60;;;;;;5100782;28;20188;-38
2021/03/03 00:56:26;;;;;;;27.90;18.93;;;4.70;93.50;;;;;;5100283;28;20204;-42
2021/03/03 00:58:52;;;;;;;26.73;18.20;;;4.70;93.40;;;;;;5100386;28;20651;-38
2021/03/03 01:01:18;;;;;;;25.90;18.40;;;4.70;93.40;;;;;;5100292;28;20589;-42
2021/03/03 01:03:43;;;;;;;28.20;19.10;;;4.70;93.40;;;;;;5100941;28;20253;-40
2021/03/03 01:06:09;;;;;;;26.57;17.70;;;4.60;93.40;;;;;;5100249;28;20192;-40
2021/03/03 01:08:34;;;;;;;22.77;17.63;;;4.60;93.40;;;;;;5100360;28;20582;-40
2021/03/03 01:11:00;;;;;;;31.50;19.90;;;4.50;93.40;;;;;;5099983;28;20286;-42
2021/03/03 01:13:26;;;;;;;23.90;18.03;;;4.60;93.50;;;;;;5099922;28;20655;-41
2021/03/03 01:15:51;;;;;;;25.67;19.20;;;4.50;93.40;;;;;;5099683;28;20216;-41
2021/03/03 01:18:17;;;;;;;28.13;19.07;;;4.50;93.50;;;;;;5100175;28;20176;-40
2021/03/03 01:20:43;;;;;;;28.33;19.47;;;4.50;93.50;;;;;;5098529;28;20470;-42
2021/03/03 01:23:08;;;;;;;25.00;18.17;;;4.50;93.80;;;;;;5099746;28;20168;-42
2021/03/03 01:25:34;;;;;;;24.80;16.70;;;4.50;93.60;;;;;;5098859;28;20184;-37
2021/03/03 01:28:00;;;;;;;23.13;17.57;;;4.50;93.60;;;;;;5099599;28;20474;-39
2021/03/03 01:30:26;;;;;;;26.93;19.63;;;4.60;93.60;;;;;;5099563;28;20470;-41
2021/03/03 01:32:51;;;;;;;24.30;16.67;;;4.50;93.60;;;;;;5099729;28;20180;-40
2021/03/03 01:35:17;;;;;;;29.73;17.47;;;4.50;93.60;;;;;;5099401;28;20276;-40
2021/03/03 01:37:42;;;;;;;25.33;16.83;;;4.50;93.70;;;;;;5099836;28;20211;-40
2021/03/03 01:40:09;;;;;;;27.43;17.70;;;4.40;93.70;;;;;;5099649;28;20535;-42
2021/03/03 01:42:35;;;;;;;21.20;16.13;;;4.40;93.80;;;;;;5100147;28;20184;-39
2021/03/03 01:45:00;;;;;;;24.63;17.20;;;4.40;93.80;;;;;;5099592;28;20434;-41
2021/03/03 01:47:26;;;;;;;23.33;15.17;;;4.40;94.20;;;;;;5099488;28;20188;-42
2021/03/03 01:49:52;;;;;;;23.70;17.80;;;4.40;93.90;;;;;;5099731;28;20185;-38
2021/03/03 01:52:20;;;;;;;26.60;17.63;;;4.40;94.00;;;;;;5099371;28;20443;-41
2021/03/03 01:54:45;;;;;;;23.27;15.70;;;4.40;94.00;;;;;;5098291;28;20211;-40
2021/03/03 01:57:11;;;;;;;20.50;15.40;;;4.40;94.00;;;;;;5098378;28;20411;-40
2021/03/03 01:59:37;;;;;;;22.30;15.20;;;4.40;94.00;;;;;;5098427;28;20283;-41
2021/03/03 02:02:03;;;;;;;22.70;16.07;;;4.40;94.00;;;;;;5099796;28;20458;-41
2021/03/03 02:04:29;;;;;;;25.00;16.50;;;4.40;94.00;;;;;;5098535;28;20193;-42
2021/03/03 02:07:02;;;;;;;30.63;16.60;;;4.40;94.00;;;;;;5098185;28;20827;-42
2021/03/03 02:09:43;;;;;;;19.67;14.80;;;4.30;94.00;;;;;;5098460;28;20180;-42
2021/03/03 02:12:16;;;;;;;23.07;15.60;;;4.30;94.00;;;;;;5098517;28;20430;-40
2021/03/03 02:14:46;;;;;;;22.33;15.60;;;4.30;93.90;;;;;;5098515;28;20494;-41
2021/03/03 02:17:12;;;;;;;24.03;16.03;;;4.30;93.90;;;;;;5098977;28;20427;-41
2021/03/03 02:19:39;;;;;;;20.73;15.80;;;4.30;93.90;;;;;;5098641;28;20422;-42
2021/03/03 02:22:35;;;;;;;22.97;16.47;;;4.30;93.80;;;;;;5097514;28;20871;-41
2021/03/03 02:25:25;;;;;;;21.90;15.60;;;4.30;93.90;;;;;;5097783;28;20457;-41
2021/03/03 02:27:52;;;;;;;22.90;15.90;;;4.30;94.00;;;;;;5093360;28;20465;-39
2021/03/03 02:30:18;;;;;;;21.80;17.30;;;4.40;94.10;;;;;;5097319;28;20517;-40
2021/03/03 02:32:44;;;;;;;23.80;16.20;;;4.40;94.40;;;;;;5096814;28;20931;-40
2021/03/03 02:35:11;;;;;;;23.70;15.30;;;4.40;94.00;;;;;;5097548;28;20717;-42
2021/03/03 02:37:37;;;;;;;29.37;18.00;;;4.40;94.00;;;;;;5081170;28;20813;-41
2021/03/03 02:40:10;;;;;;;24.40;16.40;;;4.30;94.10;;;;;;5097189;28;20475;-40
2021/03/03 02:42:37;;;;;;;25.47;16.77;;;4.30;94.20;;;;;;5098831;28;20716;-40
2021/03/03 02:45:16;;;;;;;26.77;18.20;;;4.20;94.30;;;;;;5097330;28;20497;-40
2021/03/03 02:47:42;;;;;;;23.00;15.93;;;4.20;94.40;;;;;;5097500;28;20486;-40
2021/03/03 02:50:09;;;;;;;26.03;18.20;;;4.10;94.40;;;;;;5098205;28;20430;-41
2021/03/03 02:52:49;;;;;;;27.37;17.63;;;4.10;94.60;;;;;;5098017;28;20429;-41
2021/03/03 02:55:15;;;;;;;25.97;17.10;;;4.20;94.60;;;;;;5098468;28;20473;-42
2021/03/03 03:01:03;;;;;;;27.33;16.93;;;4.20;94.70;;;;;;5097904;28;20522;-42
2021/03/03 03:03:35;;;;;;;27.53;16.77;;;4.10;94.80;;;;;;5098803;28;20419;-42
2021/03/03 03:06:07;;;;;;;25.10;17.87;;;4.10;94.90;;;;;;5098271;28;20461;-41
2021/03/03 03:08:34;;;;;;;32.17;17.60;;;4.10;95.00;;;;;;5097818;28;20449;-38
2021/03/03 03:11:04;;;;;;;27.00;17.20;;;4.20;95.00;;;;;;5097391;28;20430;-40
2021/03/03 03:13:32;;;;;;;26.40;17.77;;;4.20;94.90;;;;;;5098219;28;20519;-41
2021/03/03 03:16:00;;;;;;;26.40;17.10;;;4.20;94.90;;;;;;5097392;28;20927;-41
2021/03/03 03:18:49;;;;;;;25.90;17.60;;;4.30;94.90;;;;;;5097064;28;20421;-40
2021/03/03 03:21:16;;;;;;;26.90;17.13;;;4.30;94.80;;;;;;5097493;28;20431;-40
2021/03/03 03:23:41;;;;;;;24.37;16.87;;;4.30;95.00;;;;;;5097944;28;20431;-39
2021/03/03 03:26:07;;;;;;;24.60;16.90;;;4.30;94.60;;;;;;5096883;28;20426;-38
2021/03/03 03:28:40;;;;;;;25.87;17.10;;;4.30;94.70;;;;;;5098104;28;20483;-41
2021/03/03 03:31:06;;;;;;;25.30;16.47;;;4.30;94.70;;;;;;5097091;28;20180;-40
2021/03/03 03:33:33;;;;;;;24.60;18.27;;;4.30;94.50;;;;;;5096160;28;20792;-42
2021/03/03 03:36:00;;;;;;;22.03;16.60;;;4.20;94.10;;;;;;5096706;28;20505;-40
2021/03/03 03:38:29;;;;;;;25.30;17.40;;;4.10;94.30;;;;;;5096486;28;20481;-40
2021/03/03 03:40:56;;;;;;;27.93;17.70;;;4.00;94.60;;;;;;5097517;28;20452;-40
2021/03/03 03:43:22;;;;;;;25.60;17.13;;;4.00;94.90;;;;;;5099140;28;20418;-42
2021/03/03 03:45:49;;;;;;;27.03;17.73;;;3.90;94.90;;;;;;5101201;28;20438;-40
2021/03/03 03:48:16;;;;;;;28.03;20.10;;;3.90;95.00;;;;;;5101124;28;20742;-41
2021/03/03 03:50:42;;;;;;;26.27;17.77;;;3.90;95.10;;;;;;5101157;28;20565;-41
2021/03/03 03:53:08;;;;;;;28.70;18.00;;;3.90;95.10;;;;;;5092051;28;20460;-41
2021/03/03 03:55:38;;;;;;;25.53;18.13;;;3.90;95.10;;;;;;5089773;28;20208;-39
2021/03/03 03:58:04;;;;;;;26.90;16.73;;;3.90;95.10;;;;;;5098426;28;20478;-40
2021/03/03 04:00:30;;;;;;;24.47;16.97;;;3.90;95.10;;;;;;5101661;28;20844;-41
2021/03/03 04:02:57;;;;;;;24.87;18.10;;;3.90;95.20;;;;;;5100644;28;20414;-42
2021/03/03 04:05:23;;;;;;;23.67;17.50;;;3.90;95.30;;;;;;5101525;28;20422;-41
2021/03/03 04:07:49;;;;;;;25.70;17.83;;;3.90;95.30;;;;;;5100622;28;20418;-40
2021/03/03 04:10:21;;;;;;;25.40;17.90;;;3.90;95.20;;;;;;5101329;28;20422;-40
2021/03/03 04:12:47;;;;;;;25.30;17.50;;;4.00;95.10;;;;;;5101464;28;20473;-41
2021/03/03 04:15:14;;;;;;;26.00;16.13;;;4.00;95.10;;;;;;5101162;28;20476;-42
2021/03/03 04:17:40;;;;;;;25.77;17.73;;;4.00;95.10;;;;;;5101346;28;20173;-41
2021/03/03 04:20:07;;;;;;;30.20;19.70;;;4.00;95.00;;;;;;5101065;28;20883;-39
2021/03/03 04:22:33;;;;;;;26.93;17.73;;;4.00;94.90;;;;;;5100928;28;20418;-38
2021/03/03 04:25:00;;;;;;;23.93;17.77;;;4.00;94.80;;;;;;5100900;28;20417;-42
2021/03/03 04:27:26;;;;;;;24.53;18.70;;;3.90;94.80;;;;;;5101096;28;20453;-42
2021/03/03 04:29:52;;;;;;;24.40;18.17;;;3.90;94.90;;;;;;5100250;28;20426;-39
2021/03/03 04:32:18;;;;;;;25.80;18.03;;;3.90;95.00;;;;;;5100899;28;20172;-41
2021/03/03 04:34:43;;;;;;;27.10;17.20;;;3.90;94.80;;;;;;5101164;28;20470;-40
2021/03/03 04:37:09;;;;;;;29.40;16.60;;;3.80;94.80;;;;;;5101046;28;20422;-40
2021/03/03 04:39:35;;;;;;;29.83;21.10;;;3.80;94.80;;;;;;5100314;28;20168;-41
2021/03/03 04:42:03;;;;;;;33.80;24.07;;;3.90;94.90;;;;;;5100826;28;20187;-40
2021/03/03 04:44:28;;;;;;;34.87;22.73;;;3.90;94.80;;;;;;5100654;28;20324;-41
2021/03/03 04:46:54;;;;;;;28.63;19.60;;;3.80;94.80;;;;;;5100546;28;20452;-40
2021/03/03 04:49:19;;;;;;;26.07;18.57;;;3.80;94.80;;;;;;5100142;28;20187;-40
2021/03/03 04:51:45;;;;;;;28.07;17.57;;;3.70;94.90;;;;;;5100476;28;20176;-40
2021/03/03 04:54:11;;;;;;;27.63;19.13;;;3.80;95.00;;;;;;5099618;28;20185;-41
2021/03/03 04:56:36;;;;;;;24.73;18.63;;;3.80;95.00;;;;;;5099884;28;20300;-40
2021/03/03 04:59:02;;;;;;;26.87;19.20;;;3.70;95.00;;;;;;5099670;28;20176;-41
2021/03/03 05:01:27;;;;;;;26.00;15.97;;;3.70;95.00;;;;;;5100168;28;20523;-40
2021/03/03 05:03:53;;;;;;;24.70;17.67;;;3.70;95.10;;;;;;5100381;28;20172;-40
2021/03/03 05:06:18;;;;;;;25.77;18.20;;;3.70;95.10;;;;;;5099744;28;20200;-42
2021/03/03 05:08:45;;;;;;;25.10;18.27;;;3.80;95.10;;;;;;5099454;28;20185;-42
2021/03/03 05:11:10;;;;;;;26.53;17.37;;;3.80;95.10;;;;;;5081190;28;20181;-42
2021/03/03 05:13:36;;;;;;;30.33;19.13;;;3.70;95.10;;;;;;5079948;28;20527;-41
2021/03/03 05:16:02;;;;;;;29.30;18.47;;;3.70;95.30;;;;;;5085552;28;20219;-39
2021/03/03 05:18:27;;;;;;;26.60;18.00;;;3.60;95.40;;;;;;5098322;28;20177;-41
2021/03/03 05:20:53;;;;;;;25.43;18.13;;;3.60;95.40;;;;;;5098536;28;20420;-41
2021/03/03 05:23:37;;;;;;;24.40;17.07;;;3.60;95.40;;;;;;5097175;28;20173;-42
2021/03/03 05:26:04;;;;;;;26.53;18.50;;;3.60;95.40;;;;;;5096819;28;20609;-41
2021/03/03 05:28:30;;;;;;;27.43;19.93;;;3.60;95.50;;;;;;5098499;28;20418;-41
2021/03/03 05:30:56;;;;;;;26.33;18.33;;;3.60;95.60;;;;;;5098550;28;20437;-50
2021/03/03 05:33:26;;;;;;;35.53;20.30;;;3.70;95.70;;;;;;5098037;28;20406;-41
2021/03/03 05:35:53;;;;;;;27.83;20.57;;;3.70;95.60;;;;;;5098813;28;20200;-41
2021/03/03 05:38:19;;;;;;;32.13;21.03;;;3.70;95.60;;;;;;5099606;28;20953;-41
2021/03/03 05:40:46;;;;;;;26.77;19.17;;;3.70;95.70;;;;;;5099439;28;20521;-42
2021/03/03 05:43:15;;;;;;;29.47;19.00;;;3.70;95.70;;;;;;5099504;28;20454;-40
2021/03/03 05:45:41;;;;;;;26.60;18.40;;;3.70;95.70;;;;;;5099451;28;20767;-42
2021/03/03 05:48:23;;;;;;;27.10;18.67;;;3.60;95.70;;;;;;5098856;28;20522;-41
2021/03/03 05:51:05;;;;;;;29.33;21.40;;;3.60;95.70;;;;;;5099697;28;20426;-40
2021/03/03 05:53:32;;;;;;;30.33;21.87;;;3.50;96.00;;;;;;5099013;28;20422;-41
2021/03/03 05:56:02;;;;;;;29.20;20.70;;;3.40;96.30;;;;;;5098107;28;20470;-39
2021/03/03 05:58:29;;;;;;;32.30;21.10;;;3.50;96.30;;;;;;5097420;28;20458;-40
2021/03/03 06:00:56;;;;;;;26.27;19.90;;;3.50;96.20;;;;;;5095858;28;20516;-38
2021/03/03 06:03:24;;;;;;;30.60;20.57;;;3.50;96.20;;;;;;5096983;28;20425;-38
2021/03/03 06:05:49;;;;;;;29.23;20.43;;;3.50;96.20;;;;;;5097264;28;20441;-39
2021/03/03 06:08:16;;;;;;;27.13;18.50;;;3.50;96.20;;;;;;5088550;28;20431;-42
2021/03/03 06:10:42;;;;;;;28.43;20.87;;;3.50;96.20;;;;;;5081582;28;20188;-39
2021/03/03 06:13:08;;;;;;;27.20;18.97;;;3.50;96.30;;;;;;5096407;28;20477;-39
2021/03/03 06:15:34;;;;;;;28.57;20.67;;;3.50;96.20;;;;;;5097472;28;20485;-40
2021/03/03 06:17:59;;;;;;;31.40;20.40;;;3.50;96.20;;;;;;5097000;28;20462;-37
2021/03/03 06:20:25;;;;;;;28.70;21.60;;;3.60;96.10;;;;;;5097319;28;20168;-37
2021/03/03 06:22:51;;;;;;;26.13;19.27;;;3.70;96.10;;;;;;5097296;28;20180;-40
2021/03/03 06:25:21;;;;;;;33.73;21.20;;;3.70;96.00;;;;;;5097563;28;20963;-40
2021/03/03 06:27:47;;;;;;;25.10;19.13;;;3.80;96.30;;;;;;5096488;28;20184;-38
2021/03/03 06:30:15;;;;;;;26.13;18.60;;;3.80;95.70;;;;;;5096651;28;20796;-41
2021/03/03 06:33:00;;;;;;;29.87;19.50;;;3.80;95.70;;;;;;5096364;28;20431;-41
2021/03/03 06:35:44;;;;;;;26.03;19.33;;;3.80;95.70;;;;;;5094741;28;21067;-39
2021/03/03 06:38:14;;;;;;;25.80;18.60;;;3.90;95.80;;;;;;5095998;28;20444;-40
2021/03/03 06:41:00;;;;;;;36.07;20.50;;;3.90;95.70;;;;;;5095699;28;20860;-40
2021/03/03 06:43:30;;;;;;;27.57;18.20;;;4.00;95.80;;;;;;5097979;28;20425;-41
2021/03/03 06:45:57;;;;;;;26.90;19.47;;;4.00;95.80;;;;;;5097567;28;20422;-41
2021/03/03 06:48:37;;;;;;;26.37;17.80;;;4.10;95.80;;;;;;5096662;28;20579;-39
2021/03/03 06:51:23;;;;;;;27.50;19.27;;;4.20;95.80;;;;;;5078174;28;20468;-41
2021/03/03 06:53:49;;;;;;;28.60;19.87;;;4.20;95.60;;;;;;5094306;28;20429;-41
2021/03/03 06:56:32;;;;;;;27.83;19.93;;;4.40;95.80;;;;;;5094891;28;20466;-41
2021/03/03 06:59:30;;;;;;;25.23;20.20;;;4.40;95.40;;;;;;5095742;28;20843;-41
2021/03/03 07:02:15;;;;;;;26.27;19.83;;;4.50;95.30;;;;;;5077122;28;20430;-39
2021/03/03 07:04:42;;;;;;;25.77;19.00;;;4.50;95.20;;;;;;5094690;28;20834;-40
2021/03/03 07:07:14;;;;;;;24.10;18.60;;;4.60;95.10;;;;;;5095035;28;20426;-39
2021/03/03 07:09:41;;;;;;;25.30;19.40;;;4.60;94.90;;;;;;5094622;28;20422;-37
2021/03/03 07:12:12;;;;;;;24.00;18.47;;;4.70;95.00;;;;;;5094057;28;20502;-39
2021/03/03 07:14:40;;;;;;;29.07;19.73;;;4.80;94.90;;;;;;5094118;28;20888;-38
2021/03/03 07:17:05;;;;;;;35.43;23.70;;;4.90;94.80;;;;;;5095317;28;21013;-40
2021/03/03 07:19:41;;;;;;;39.47;26.57;;;5.00;94.70;;;;;;5095750;28;20549;-38
2021/03/03 07:22:30;;;;;;;40.50;27.67;;;5.10;94.60;;;;;;5096103;28;20171;-43
2021/03/03 07:25:00;;;;;;;44.30;29.20;;;5.30;94.40;;;;;;5096295;28;20430;-39
2021/03/03 07:27:27;;;;;;;38.60;26.03;;;5.40;94.20;;;;;;5097684;28;20426;-41
2021/03/03 07:30:19;;;;;;;23.87;17.43;;;5.50;94.10;;;;;;5097183;28;20423;-41
2021/03/03 07:32:45;;;;;;;31.50;22.60;;;5.70;95.40;;;;;;5094005;28;20453;-39
2021/03/03 07:35:11;;;;;;;30.10;17.93;;;6.10;96.20;;;;;;5095601;28;20497;-40
2021/03/03 07:37:40;;;;;;;35.93;20.87;;;6.80;98.50;;;;;;5095590;28;20483;-40
2021/03/03 07:40:08;;;;;;;36.03;24.07;;;7.90;96.90;;;;;;5096049;28;20403;-40
2021/03/03 07:42:35;;;;;;;34.40;24.83;;;8.10;92.20;;;;;;5095441;28;20867;-37
2021/03/03 07:45:09;;;;;;;32.37;25.30;;;8.10;90.40;;;;;;5095796;28;20834;-37
2021/03/03 07:47:36;;;;;;;33.63;24.03;;;8.00;90.10;;;;;;5096310;28;20419;-39
2021/03/03 07:50:14;;;;;;;32.10;23.13;;;7.90;89.70;;;;;;5095286;28;20421;-38
2021/03/03 07:52:44;;;;;;;35.67;21.73;;;7.80;89.80;;;;;;5094289;28;20406;-37
2021/03/03 07:55:10;;;;;;;29.30;21.90;;;7.50;90.20;;;;;;5094935;28;20489;-38
2021/03/03 07:57:39;;;;;;;32.17;22.30;;;7.50;90.60;;;;;;5096328;28;20701;-38
2021/03/03 08:00:11;;;;;;;28.23;23.00;;;7.50;90.70;;;;;;5093691;28;20421;-38
2021/03/03 08:02:49;;;;;;;30.63;21.53;;;7.50;90.90;;;;;;5093668;28;20781;-37
2021/03/03 08:05:38;;;;;;;31.53;20.93;;;7.50;90.90;;;;;;5094972;28;20508;-41
2021/03/03 08:08:10;;;;;;;29.53;20.73;;;7.50;90.70;;;;;;5095023;28;20418;-40
2021/03/03 08:10:41;;;;;;;26.03;20.97;;;7.60;90.70;;;;;;5080065;28;20477;-37
2021/03/03 08:13:14;;;;;;;28.53;21.57;;;7.70;90.90;;;;;;5072138;28;20462;-36
2021/03/03 08:15:48;;;;;;;29.40;21.37;;;7.70;90.60;;;;;;5073140;28;20459;-39
2021/03/03 08:18:13;;;;;;;29.80;21.10;;;7.80;90.30;;;;;;5075576;28;20418;-39
2021/03/03 08:20:48;;;;;;;28.03;20.97;;;7.70;89.00;;;;;;5086135;28;20427;-36
2021/03/03 08:23:32;;;;;;;24.37;20.07;;;7.80;89.30;;;;;;5090772;28;20184;-35
2021/03/03 08:25:58;;;;;;;29.90;22.10;;;8.00;89.60;;;;;;5094606;28;20434;-38
2021/03/03 08:28:50;;;;;;;27.73;20.37;;;8.00;89.00;;;;;;5094457;28;20430;-39
2021/03/03 08:31:16;;;;;;;27.10;21.70;;;8.00;89.10;;;;;;5098375;28;20450;-38
2021/03/03 08:33:43;;;;;;;29.23;22.17;;;8.20;89.10;;;;;;5099342;28;20492;-38
2021/03/03 08:36:31;;;;;;;31.70;20.93;;;8.30;88.80;;;;;;5099653;28;20464;-38
2021/03/03 08:38:56;;;;;;;28.93;20.47;;;8.50;88.90;;;;;;5090683;28;20469;-37
2021/03/03 08:41:28;;;;;;;26.30;21.90;;;8.60;89.00;;;;;;5099181;28;20466;-38
2021/03/03 08:44:10;;;;;;;28.13;22.80;;;8.80;88.40;;;;;;5099141;28;20215;-37
2021/03/03 08:46:41;;;;;;;24.07;20.50;;;8.90;88.00;;;;;;5098710;28;20422;-40
2021/03/03 08:49:07;;;;;;;28.57;22.27;;;9.10;87.60;;;;;;5099175;28;20425;-39
2021/03/03 08:51:40;;;;;;;31.90;23.97;;;9.20;87.00;;;;;;5099758;28;20422;-38
2021/03/03 08:54:17;;;;;;;27.23;22.60;;;9.40;86.30;;;;;;5099104;28;20180;-38
2021/03/03 08:56:51;;;;;;;23.57;20.67;;;9.40;85.40;;;;;;5099486;28;20717;-36
2021/03/03 08:59:29;;;;;;;25.67;21.27;;;9.60;85.40;;;;;;5098875;28;20430;-37
2021/03/03 09:02:09;;;;;;;27.57;21.03;;;9.70;85.30;;;;;;5099704;28;20483;-36
2021/03/03 09:04:43;;;;;;;26.20;21.57;;;9.80;85.00;;;;;;5099389;28;20696;-39
2021/03/03 09:07:22;;;;;;;26.70;22.53;;;10.00;83.30;;;;;;5099172;28;20430;-36
2021/03/03 09:10:04;;;;;;;29.20;22.83;;;10.00;82.20;;;;;;5098946;28;20421;-36
2021/03/03 09:12:31;;;;;;;24.43;21.10;;;9.90;84.70;;;;;;5098805;28;20533;-37
2021/03/03 09:14:59;;;;;;;23.30;18.53;;;10.00;82.90;;;;;;5099386;28;20531;-39
2021/03/03 09:17:27;;;;;;;29.10;21.47;;;10.20;82.70;;;;;;5098548;28;20427;-38
2021/03/03 09:19:54;;;;;;;26.27;22.00;;;10.30;82.60;;;;;;5096425;28;20427;-37
2021/03/03 09:22:24;;;;;;;29.67;23.73;;;10.50;82.10;;;;;;5097867;28;20499;-40
2021/03/03 09:24:55;;;;;;;24.57;21.80;;;10.60;81.50;;;;;;5097896;28;20434;-38
2021/03/03 09:27:22;;;;;;;28.23;22.10;;;10.70;80.90;;;;;;5097874;28;20433;-36
2021/03/03 09:29:49;;;;;;;24.80;21.57;;;10.80;81.50;;;;;;5098797;28;20426;-41
2021/03/03 09:32:21;;;;;;;23.43;19.87;;;11.00;81.30;;;;;;5099133;28;20414;-46
2021/03/03 09:34:46;;;;;;;22.53;20.07;;;11.20;80.40;;;;;;5098283;28;20812;-38
2021/03/03 09:37:13;;;;;;;23.87;21.27;;;11.50;82.10;;;;;;5092834;28;20466;-41
2021/03/03 09:39:39;;;;;;;24.43;20.43;;;11.80;79.80;;;;;;5096149;28;20333;-37
2021/03/03 09:42:09;;;;;;;24.87;20.33;;;12.00;78.20;;;;;;5096414;28;20828;-36
2021/03/03 09:44:57;;;;;;;25.80;21.00;;;12.30;76.90;;;;;;5095921;28;20525;-37
2021/03/03 09:47:32;;;;;;;25.97;21.17;;;12.60;77.10;;;;;;5097313;28;20813;-37
2021/03/03 09:49:59;;;;;;;24.17;19.70;;;12.90;76.30;;;;;;5076254;28;20419;-38
2021/03/03 09:52:35;;;;;;;23.93;20.80;;;13.20;73.80;;;;;;5089707;28;20448;-36
2021/03/03 09:55:00;;;;;;;30.30;21.27;;;13.00;72.60;;;;;;5094322;28;20929;-40
2021/03/03 09:57:26;;;;;;;28.57;21.07;;;13.10;71.70;;;;;;5096648;28;20411;-41
2021/03/03 09:59:53;;;;;;;28.70;19.73;;;13.10;71.30;;;;;;5096422;28;20176;-38
2021/03/03 10:02:22;;;;;;;22.70;20.23;;;13.00;69.40;;;;;;5094753;28;20173;-38
2021/03/03 10:04:49;;;;;;;24.53;18.47;;;13.20;69.40;;;;;;5088321;28;20427;-39
2021/03/03 10:07:16;;;;;;;21.43;19.13;;;13.30;68.90;;;;;;5078279;28;20433;-39
2021/03/03 10:09:43;;;;;;;26.13;19.50;;;13.60;68.10;;;;;;5096082;28;20457;-37
2021/03/03 10:12:14;;;;;;;20.07;17.90;;;13.80;66.40;;;;;;5096027;28;20430;-38
2021/03/03 10:14:55;;;;;;;21.30;17.73;;;14.00;65.30;;;;;;5096194;28;20469;-37
2021/03/03 10:17:37;;;;;;;22.23;19.40;;;14.30;64.90;;;;;;5096052;28;20435;-39
2021/03/03 10:20:07;;;;;;;23.30;19.70;;;14.50;62.70;;;;;;5076060;28;20407;-40
2021/03/03 10:22:33;;;;;;;20.90;18.23;;;14.70;61.40;;;;;;5088827;28;20429;-37
2021/03/03 10:25:04;;;;;;;21.73;19.00;;;14.90;59.80;;;;;;5097318;28;20787;-41
2021/03/03 10:27:39;;;;;;;22.10;17.80;;;15.20;59.50;;;;;;5097681;28;20440;-39
2021/03/03 10:30:27;;;;;;;19.83;17.47;;;15.40;59.20;;;;;;5077222;28;20745;-38
2021/03/03 10:32:53;;;;;;;20.57;17.17;;;15.70;58.90;;;;;;5094500;28;20449;-40
2021/03/03 10:35:20;;;;;;;22.50;17.50;;;15.90;58.30;;;;;;5095695;28;20552;-38
2021/03/03 10:37:46;;;;;;;19.53;17.10;;;16.20;56.80;;;;;;5096075;28;20421;-39
2021/03/03 10:40:16;;;;;;;20.93;17.57;;;16.20;55.80;;;;;;5095963;28;20703;-37
2021/03/03 10:42:43;;;;;;;18.70;14.63;;;16.40;54.80;;;;;;5096726;28;20253;-40
2021/03/03 10:45:18;;;;;;;18.20;14.53;;;16.60;53.10;;;;;;5097534;28;20406;-38
2021/03/03 10:47:45;;;;;;;24.43;14.73;;;16.60;50.30;;;;;;5097562;28;20436;-38
2021/03/03 10:50:12;;;;;;;21.27;15.53;;;16.60;49.00;;;;;;5095229;28;20426;-37
2021/03/03 10:52:37;;;;;;;20.40;16.20;;;16.50;49.00;;;;;;5095265;28;20450;-40
2021/03/03 10:55:19;;;;;;;21.70;14.80;;;16.50;48.70;;;;;;5097074;28;20481;-40
2021/03/03 10:58:04;;;;;;;17.47;14.80;;;16.60;48.70;;;;;;5097660;28;20187;-38
2021/03/03 11:00:31;;;;;;;21.63;15.40;;;16.60;48.60;;;;;;5096339;28;20755;-41
2021/03/03 11:03:04;;;;;;;18.57;15.93;;;16.70;48.30;;;;;;5096405;28;20692;-42
2021/03/03 11:05:31;;;;;;;17.40;15.37;;;16.70;47.70;;;;;;5095452;28;20496;-41
2021/03/03 11:07:58;;;;;;;21.93;15.67;;;16.70;47.20;;;;;;5095410;28;20406;-39
2021/03/03 11:10:24;;;;;;;20.80;14.47;;;16.70;47.30;;;;;;5096190;28;20445;-38
2021/03/03 11:12:50;;;;;;;19.23;16.10;;;16.70;47.10;;;;;;5096520;28;20474;-36
2021/03/03 11:15:17;;;;;;;20.90;17.00;;;16.70;47.10;;;;;;5096961;28;20476;-37
2021/03/03 11:17:43;;;;;;;19.97;16.73;;;16.80;46.80;;;;;;5095407;28;20422;-40
2021/03/03 11:20:10;;;;;;;19.50;16.87;;;16.80;46.60;;;;;;5095406;28;20425;-37
2021/03/03 11:22:35;;;;;;;20.90;16.07;;;16.70;46.60;;;;;;5093900;28;20445;-38
2021/03/03 11:25:02;;;;;;;18.87;14.87;;;16.90;46.10;;;;;;5096548;28;20611;-37
2021/03/03 11:27:29;;;;;;;17.53;15.00;;;16.90;45.80;;;;;;5095454;28;20184;-38
2021/03/03 11:29:54;;;;;;;18.67;14.00;;;16.80;45.70;;;;;;5094806;28;20576;-36
2021/03/03 11:32:20;;;;;;;22.50;15.37;;;16.70;45.60;;;;;;5094935;28;20223;-40
2021/03/03 11:34:46;;;;;;;16.40;13.40;;;16.70;46.00;;;;;;5092674;28;20180;-40
2021/03/03 11:37:12;;;;;;;18.13;14.80;;;16.80;46.40;;;;;;5094605;28;20214;-36
2021/03/03 11:39:37;;;;;;;17.93;14.37;;;17.00;45.30;;;;;;5093940;28;20467;-36
2021/03/03 11:42:03;;;;;;;18.97;15.60;;;17.10;44.90;;;;;;5075488;28;20193;-40
2021/03/03 11:44:29;;;;;;;18.23;15.03;;;17.00;44.80;;;;;;5092497;28;20279;-39
2021/03/03 11:46:54;;;;;;;20.50;14.90;;;17.10;45.30;;;;;;5095814;28;20593;-41
2021/03/03 11:49:20;;;;;;;22.40;15.87;;;17.10;45.20;;;;;;5095774;28;20211;-39
2021/03/03 11:51:47;;;;;;;24.80;15.33;;;17.20;45.30;;;;;;5096098;28;20190;-38
2021/03/03 11:54:12;;;;;;;19.13;16.27;;;17.30;44.70;;;;;;5096897;28;20271;-39
2021/03/03 11:56:38;;;;;;;17.87;15.10;;;17.20;45.00;;;;;;5095976;28;20635;-37
2021/03/03 11:59:04;;;;;;;19.77;16.17;;;17.30;45.00;;;;;;5094366;28;20253;-39
2021/03/03 12:01:29;;;;;;;18.63;15.20;;;17.50;45.00;;;;;;5097277;28;20199;-37
2021/03/03 12:03:55;;;;;;;19.53;14.60;;;17.50;44.10;;;;;;5097802;28;20462;-39
2021/03/03 12:06:20;;;;;;;22.70;16.40;;;17.50;44.00;;;;;;5100060;28;20205;-38
2021/03/03 12:08:46;;;;;;;20.10;13.80;;;17.30;43.90;;;;;;5099558;28;20202;-42
2021/03/03 12:11:12;;;;;;;18.30;14.63;;;17.30;44.20;;;;;;5100371;28;20192;-39
2021/03/03 12:13:37;;;;;;;17.50;14.30;;;17.40;43.70;;;;;;5098251;28;20314;-36
2021/03/03 12:16:03;;;;;;;20.07;14.43;;;17.20;44.00;;;;;;5096086;28;20201;-41
2021/03/03 12:18:29;;;;;;;20.40;15.50;;;17.30;43.90;;;;;;5100382;28;20264;-40
2021/03/03 12:20:54;;;;;;;17.43;13.70;;;17.20;43.70;;;;;;5100701;28;20180;-41
2021/03/03 12:23:20;;;;;;;19.10;13.70;;;17.20;43.80;;;;;;5099814;28;20210;-38
2021/03/03 12:25:45;;;;;;;20.30;14.57;;;17.00;43.40;;;;;;5099703;28;20188;-38
2021/03/03 12:28:11;;;;;;;22.30;15.60;;;16.80;43.80;;;;;;5097387;28;20185;-36
2021/03/03 12:30:37;;;;;;;21.60;13.93;;;16.80;44.10;;;;;;5099011;28;20176;-41
2021/03/03 12:33:03;;;;;;;17.70;12.97;;;16.70;43.90;;;;;;5099856;28;20188;-38
2021/03/03 12:35:28;;;;;;;18.63;14.50;;;16.70;44.20;;;;;;5098144;28;20658;-40
2021/03/03 12:37:54;;;;;;;20.10;14.07;;;16.70;43.90;;;;;;5098286;28;20586;-39
2021/03/03 12:40:20;;;;;;;21.13;13.87;;;16.70;44.20;;;;;;5099757;28;20244;-39
2021/03/03 12:42:46;;;;;;;21.17;15.07;;;16.90;43.60;;;;;;5100143;28;20277;-39
2021/03/03 12:45:12;;;;;;;19.40;15.20;;;16.90;43.40;;;;;;5099864;28;20535;-38